METAR Data
IDs: Format: Raw Decoded Include TAF

Data at: 0622 UTC 11 Dec 2018

PAFA 110553Z 05004KT 10SM SCT200 M19/M22 A2881 RMK AO2 SLP771 T11941217 11133 21200 58022 PNO
PAFA 110453Z 00000KT 10SM FEW180 M18/M21 A2884 RMK AO2 SLP781 T11831206 PNO
PAFA 110353Z COR 00000KT 10SM FEW180 M18/M21 A2886 RMK AO2 SLP785 T11831206 PNO
PAFA 110253Z 00000KT 10SM FEW180 M16/M18 A2888 RMK AO2 SLP793 T11611178 58018 PNO
PAFA 110153Z COR 05007KT 10SM SCT110 SCT180 M14/M16 A2889 RMK AO2 SLP797 T11391161 PNO
PAFA 110053Z 00000KT 10SM SCT110 SCT180 M15/M17 A2893 RMK AO2 SLP808 T11501172 PNO
PAFA 102353Z 04008KT 10SM FEW085 SCT110 BKN180 M13/M15 A2893 RMK AO2 SLP811 T11331150 11133 21211 58025 PNO
PAFA 102253Z 00000KT 10SM FEW065 BKN110 BKN180 M14/M16 A2898 RMK AO2 SLP826 T11391161 PNO
PAFA 102153Z 00000KT 10SM FEW065 BKN110 BKN180 M17/M19 A2899 RMK AO2 SLP829 T11721194 PNO
PAFA 102053Z 00000KT 10SM FEW075 SCT110 BKN180 M17/M19 A2901 RMK AO2 SLP837 T11721194 58019 PNO
PAFA 101953Z 04003KT 10SM FEW085 BKN100 BKN180 M18/M21 A2904 RMK AO2 SLP846 T11781206 PNO
PAFA 101853Z 00000KT 10SM SCT100 BKN160 M21/M23 A2906 RMK AO2 SLP854 T12111233 PNO
PAFA 101753Z 05003KT 10SM SCT100 BKN160 M21/M23 A2907 RMK AO2 SLP858 T12061228 11172 21222 58018 PNO
PAFA 101653Z 26003KT 10SM SCT110 BKN180 M20/M22 A2909 RMK AO2 SLP865 T12001222 PNO
PAFA 101553Z 02005KT 10SM SCT150 BKN200 M17/M19 A2911 RMK AO2 SLP870 T11721194 PNO $
PAFA 101453Z 00000KT 10SM SCT160 BKN220 M21/M23 A2912 RMK AO2 SLP876 T12061228 58018 PNO $
PAFA 101353Z 04003KT 10SM FEW003 SCT160 M21/M22 A2914 RMK AO2 SLP881 T12061222 PNO $
PAFA 101253Z 00000KT 10SM FEW003 M21/M22 A2916 RMK AO2 SLP889 T12061222 PNO $
PAFA 101153Z 00000KT 10SM FEW003 M22/M23 A2917 RMK AO2 SLP893 T12171233 11144 21217 56005 PNO $
PAFA 101053Z 10003KT 10SM FEW003 M22/M23 A2917 RMK AO2 SLP892 T12171233 PNO $
PAFA 100953Z 02003KT 10SM FEW003 SCT008 M17/M19 A2918 RMK AO2 SLP892 T11721189 PNO $
PAFA 100853Z 06003KT 10SM FEW003 SCT008 M18/M21 A2919 RMK AO2 SLP897 T11831206 410781206 51006 PNO $
PAFA 100830Z 05005KT 10SM FEW003 SCT008 M18/M20 A2919 RMK AO2 I1000 T11831200 PNO $
PAFA 100753Z 06005KT 10SM FEW003 BKN008 M17/M18 A2918 RMK AO2 SLP893 T11671183 PNO $
PAFA 100653Z 00000KT 10SM SCT003 OVC006 M14/M17 A2918 RMK AO2 SLP893 T11441167 PNO $
PAFA 100553Z 00000KT 10SM SCT003 OVC006 M16/M18 A2917 RMK AO2 SLP890 T11611183 11106 21206 50004 PNO $
PAFA 100453Z 00000KT 10SM SCT003 BKN006 BKN120 M19/M21 A2917 RMK AO2 SLP891 T11891206 PNO $
PAFA 100353Z 00000KT 10SM FEW003 FEW021 SCT120 M18/M20 A2917 RMK AO2 SNE31 SLP889 T11831200 PNO $
PAFA 100253Z 00000KT 10SM R02L/3000VP6000FT -SN FEW003 SCT021 SCT120 M19/M19 A2916 RMK AO2 SLP885 T11891194 58001 PNO $
PAFA 100153Z 00000KT 10SM -SN SCT021 SCT080 BKN110 M16/M18 A2916 RMK AO2 SLP885 T11561178 PNO $
PAFA 100053Z 00000KT 8SM -SN SCT021 SCT080 BKN110 M14/M15 A2916 RMK AO2 SLP888 VIS LWR N-NE T11391150 PNO $
PAFA 092353Z 00000KT 7SM -SN SCT023 BKN080 BKN100 M11/M12 A2916 RMK AO2 SLP885 VIS LWR N-NE T11061122 11100 21156 51007 PNO $
PAFA 092350Z 00000KT 6SM -SN BR SCT023 BKN080 BKN100 M11/M12 A2916 RMK AO2 PNO $
PAFA 092344Z 00000KT 4SM -SN BR BKN026 BKN080 BKN100 M10/M12 A2916 RMK AO2 T11001117 PNO $
PAFA 092326Z 00000KT 2SM -SN BR BKN024 BKN040 OVC070 M10/M11 A2916 RMK AO2 T11001111 PNO $
PAFA 092308Z 00000KT 1SM R02L/6000VP6000FT -SN BR VV018 M10/M11 A2916 RMK AO2 TWR VIS 1 1/2 T11001111 PNO $
PAFA 092253Z 00000KT 3/4SM R02L/5500VP6000FT -SN BR SCT013 BKN021 OVC030 M10/M11 A2916 RMK AO2 TWR VIS 1 1/2 SLP885 T11001111 PNO $
PAFA 092249Z 00000KT 3/4SM R02L/6000VP6000FT -SN BR SCT013 BKN023 OVC030 M10/M12 A2916 RMK AO2 TWR VIS 1 1/2 PNO $
PAFA 092211Z 00000KT 1 1/2SM -SN BR SCT017 BKN032 OVC055 M10/M12 A2915 RMK AO2 SFC VIS 1 3/4 T11001117 PNO $
PAFA 092157Z 00000KT 1 1/2SM -SN BR SCT017 BKN029 OVC045 M11/M12 A2915 RMK AO2 T11061117 PNO
PAFA 092153Z 00000KT 3/4SM R02L/6000VP6000FT -SN BR SCT017 BKN022 OVC026 M11/M12 A2915 RMK AO2 TWR VIS 1 SLP880 T11061117 PNO
PAFA 092139Z 00000KT 3/4SM R02L/5000VP6000FT -SN BR VV019 M11/M11 A2914 RMK AO2 TWR VIS 1 T11061111 PNO
PAFA 092120Z 00000KT 1SM R02L/P6000FT -SN BR SCT015 BKN024 OVC035 M11/M12 A2915 RMK AO2 T11061117 PNO
PAFA 092116Z 00000KT 3/4SM R02L/5500VP6000FT -SN BR SCT015 BKN024 OVC035 M11/M12 A2914 RMK AO2 T11061117 PNO
PAFA 092107Z 00000KT 3/4SM R02L/5500VP6000FT -SN BR SCT018 BKN031 OVC050 M11/M12 A2914 RMK AO2 T11061117 PNO
PAFA 092053Z 00000KT 1 1/2SM -SN BR SCT018 BKN031 OVC050 M11/M12 A2914 RMK AO2 SLP878 T11061117 51004 PNO
PAFA 092051Z 00000KT 1 1/2SM -SN BR SCT018 BKN031 OVC050 M11/M12 A2914 RMK AO2 PNO
PAFA 092042Z 00000KT 3/4SM R02L/P6000FT -SN BR SCT013 BKN031 OVC050 M11/M12 A2914 RMK AO2 T11061122 PNO
PAFA 092034Z 00000KT 1 1/2SM -SN BR SCT013 BKN036 OVC050 M11/M12 A2914 RMK AO2 T11061117 PNO
PAFA 092025Z 00000KT 2 1/2SM -SN BR SCT013 BKN045 OVC055 M11/M12 A2914 RMK AO2 T11061122 PNO
PAFA 091953Z 00000KT 2 1/2SM -SN BR SCT004 BKN013 OVC030 M12/M13 A2914 RMK AO2 SNB26 SLP878 T11171128 PNO
PAFA 091951Z 00000KT 2 1/2SM -SN BR SCT004 BKN013 OVC030 M12/M13 A2914 RMK AO2 SNB26 PNO
PAFA 091949Z 26003KT 2 1/2SM -SN BR SCT004 BKN015 OVC030 M12/M13 A2914 RMK AO2 SNB26 PNO
PAFA 091945Z 00000KT 2 1/2SM -SN BR SCT004 BKN013 OVC055 M12/M13 A2914 RMK AO2 SNB26 T11171128 PNO
PAFA 091853Z 00000KT 5SM BR FEW005 BKN013 BKN100 M12/M14 A2914 RMK AO2 SLP878 T11221139 PNO
PAFA 091851Z 00000KT 5SM BR FEW005 BKN013 BKN100 M12/M14 A2914 RMK AO2 PNO